sensor_id;sensor_type;location;lat;lon;timestamp;P1;P2;P0
60816;PMS5003;51921;51.518;-3.188;2022-07-25T00:01:21;7;6;
60816;PMS5003;51921;51.518;-3.188;2022-07-25T00:03:46;7;7;
60816;PMS5003;51921;51.518;-3.188;2022-07-25T00:06:12;8;7;
60816;PMS5003;51921;51.518;-3.188;2022-07-25T00:08:37;9;8;
60816;PMS5003;51921;51.518;-3.188;2022-07-25T00:11:03;8;8;
60816;PMS5003;51921;51.518;-3.188;2022-07-25T00:13:28;8;7;
60816;PMS5003;51921;51.518;-3.188;2022-07-25T00:15:53;9;8;
60816;PMS5003;51921;51.518;-3.188;2022-07-25T00:18:19;9;7;
60816;PMS5003;51921;51.518;-3.188;2022-07-25T00:20:45;9;9;
60816;PMS5003;51921;51.518;-3.188;2022-07-25T00:23:10;9;7;
60816;PMS5003;51921;51.518;-3.188;2022-07-25T00:25:35;9;7;
60816;PMS5003;51921;51.518;-3.188;2022-07-25T00:28:01;8;7;
60816;PMS5003;51921;51.518;-3.188;2022-07-25T00:30:26;7;7;
60816;PMS5003;51921;51.518;-3.188;2022-07-25T00:32:52;11;9;
60816;PMS5003;51921;51.518;-3.188;2022-07-25T00:35:17;5;5;
60816;PMS5003;51921;51.518;-3.188;2022-07-25T00:37:42;7;6;
60816;PMS5003;51921;51.518;-3.188;2022-07-25T00:40:08;5;5;
60816;PMS5003;51921;51.518;-3.188;2022-07-25T00:42:33;3;3;
60816;PMS5003;51921;51.518;-3.188;2022-07-25T00:44:58;6;5;
60816;PMS5003;51921;51.518;-3.188;2022-07-25T00:47:23;4;4;
60816;PMS5003;51921;51.518;-3.188;2022-07-25T00:49:49;6;5;
60816;PMS5003;51921;51.518;-3.188;2022-07-25T00:52:14;4;3;
60816;PMS5003;51921;51.518;-3.188;2022-07-25T00:54:40;3;3;
60816;PMS5003;51921;51.518;-3.188;2022-07-25T00:57:05;4;3;
60816;PMS5003;51921;51.518;-3.188;2022-07-25T00:59:30;4;4;
60816;PMS5003;51921;51.518;-3.188;2022-07-25T01:01:55;5;3;
60816;PMS5003;51921;51.518;-3.188;2022-07-25T01:04:21;4;4;
60816;PMS5003;51921;51.518;-3.188;2022-07-25T01:06:46;3;3;
60816;PMS5003;51921;51.518;-3.188;2022-07-25T01:09:12;4;4;
60816;PMS5003;51921;51.518;-3.188;2022-07-25T01:11:37;5;3;
60816;PMS5003;51921;51.518;-3.188;2022-07-25T01:14:03;3;3;
60816;PMS5003;51921;51.518;-3.188;2022-07-25T01:16:28;4;3;
60816;PMS5003;51921;51.518;-3.188;2022-07-25T01:18:53;3;3;
60816;PMS5003;51921;51.518;-3.188;2022-07-25T01:21:19;4;3;
60816;PMS5003;51921;51.518;-3.188;2022-07-25T01:23:44;4;4;
60816;PMS5003;51921;51.518;-3.188;2022-07-25T01:26:09;4;4;
60816;PMS5003;51921;51.518;-3.188;2022-07-25T01:28:35;4;3;
60816;PMS5003;51921;51.518;-3.188;2022-07-25T01:31:00;5;4;
60816;PMS5003;51921;51.518;-3.188;2022-07-25T01:33:25;4;4;
60816;PMS5003;51921;51.518;-3.188;2022-07-25T01:35:51;4;3;
60816;PMS5003;51921;51.518;-3.188;2022-07-25T01:38:16;4;4;
60816;PMS5003;51921;51.518;-3.188;2022-07-25T01:40:42;3;3;
60816;PMS5003;51921;51.518;-3.188;2022-07-25T01:43:07;3;3;
60816;PMS5003;51921;51.518;-3.188;2022-07-25T01:45:32;4;3;
60816;PMS5003;51921;51.518;-3.188;2022-07-25T01:47:58;4;4;
60816;PMS5003;51921;51.518;-3.188;2022-07-25T01:50:23;6;6;
60816;PMS5003;51921;51.518;-3.188;2022-07-25T01:52:48;5;4;
60816;PMS5003;51921;51.518;-3.188;2022-07-25T01:55:14;5;5;
60816;PMS5003;51921;51.518;-3.188;2022-07-25T01:57:39;4;3;
60816;PMS5003;51921;51.518;-3.188;2022-07-25T02:00:06;4;3;
60816;PMS5003;51921;51.518;-3.188;2022-07-25T02:02:30;4;3;
60816;PMS5003;51921;51.518;-3.188;2022-07-25T02:04:56;3;3;
60816;PMS5003;51921;51.518;-3.188;2022-07-25T02:07:21;4;4;
60816;PMS5003;51921;51.518;-3.188;2022-07-25T02:09:46;5;3;
60816;PMS5003;51921;51.518;-3.188;2022-07-25T02:12:12;5;4;
60816;PMS5003;51921;51.518;-3.188;2022-07-25T02:14:37;4;4;
60816;PMS5003;51921;51.518;-3.188;2022-07-25T02:17:02;5;4;
60816;PMS5003;51921;51.518;-3.188;2022-07-25T02:19:28;4;3;
60816;PMS5003;51921;51.518;-3.188;2022-07-25T02:21:54;3;3;
60816;PMS5003;51921;51.518;-3.188;2022-07-25T02:24:19;2;2;
60816;PMS5003;51921;51.518;-3.188;2022-07-25T02:26:44;2;2;
60816;PMS5003;51921;51.518;-3.188;2022-07-25T02:29:09;4;4;
60816;PMS5003;51921;51.518;-3.188;2022-07-25T02:31:35;2;1;
60816;PMS5003;51921;51.518;-3.188;2022-07-25T02:34:00;2;2;
60816;PMS5003;51921;51.518;-3.188;2022-07-25T02:36:26;1;1;
60816;PMS5003;51921;51.518;-3.188;2022-07-25T02:38:51;0;0;
60816;PMS5003;51921;51.518;-3.188;2022-07-25T02:41:16;2;1;
60816;PMS5003;51921;51.518;-3.188;2022-07-25T02:43:42;0;0;
60816;PMS5003;51921;51.518;-3.188;2022-07-25T02:46:07;1;1;
60816;PMS5003;51921;51.518;-3.188;2022-07-25T02:48:33;1;1;
60816;PMS5003;51921;51.518;-3.188;2022-07-25T02:50:58;1;1;
60816;PMS5003;51921;51.518;-3.188;2022-07-25T02:53:23;0;0;
60816;PMS5003;51921;51.518;-3.188;2022-07-25T02:55:49;2;1;
60816;PMS5003;51921;51.518;-3.188;2022-07-25T02:58:14;1;1;
60816;PMS5003;51921;51.518;-3.188;2022-07-25T03:00:40;3;2;
60816;PMS5003;51921;51.518;-3.188;2022-07-25T03:03:05;1;0;
60816;PMS5003;51921;51.518;-3.188;2022-07-25T03:05:31;0;0;
60816;PMS5003;51921;51.518;-3.188;2022-07-25T03:07:56;1;1;
60816;PMS5003;51921;51.518;-3.188;2022-07-25T03:10:21;1;1;
60816;PMS5003;51921;51.518;-3.188;2022-07-25T03:12:47;0;0;
60816;PMS5003;51921;51.518;-3.188;2022-07-25T03:15:13;0;0;
60816;PMS5003;51921;51.518;-3.188;2022-07-25T03:17:38;1;1;
60816;PMS5003;51921;51.518;-3.188;2022-07-25T03:20:04;0;0;
60816;PMS5003;51921;51.518;-3.188;2022-07-25T03:22:28;1;1;
60816;PMS5003;51921;51.518;-3.188;2022-07-25T03:24:54;1;1;
60816;PMS5003;51921;51.518;-3.188;2022-07-25T03:27:19;1;1;
60816;PMS5003;51921;51.518;-3.188;2022-07-25T03:29:45;1;1;
60816;PMS5003;51921;51.518;-3.188;2022-07-25T03:32:10;0;0;
60816;PMS5003;51921;51.518;-3.188;2022-07-25T03:34:36;2;2;
60816;PMS5003;51921;51.518;-3.188;2022-07-25T03:37:01;2;2;
60816;PMS5003;51921;51.518;-3.188;2022-07-25T03:39:26;0;0;
60816;PMS5003;51921;51.518;-3.188;2022-07-25T03:41:52;0;0;
60816;PMS5003;51921;51.518;-3.188;2022-07-25T03:44:17;0;0;
60816;PMS5003;51921;51.518;-3.188;2022-07-25T03:46:43;3;1;
60816;PMS5003;51921;51.518;-3.188;2022-07-25T03:49:08;0;0;
60816;PMS5003;51921;51.518;-3.188;2022-07-25T03:51:34;0;0;
60816;PMS5003;51921;51.518;-3.188;2022-07-25T03:53:59;4;3;
60816;PMS5003;51921;51.518;-3.188;2022-07-25T03:56:24;0;0;
60816;PMS5003;51921;51.518;-3.188;2022-07-25T03:58:50;0;0;
60816;PMS5003;51921;51.518;-3.188;2022-07-25T04:01:15;0;0;
60816;PMS5003;51921;51.518;-3.188;2022-07-25T04:03:41;0;0;
60816;PMS5003;51921;51.518;-3.188;2022-07-25T04:06:06;1;0;
60816;PMS5003;51921;51.518;-3.188;2022-07-25T04:08:31;1;1;
60816;PMS5003;51921;51.518;-3.188;2022-07-25T04:10:57;2;1;
60816;PMS5003;51921;51.518;-3.188;2022-07-25T04:13:22;0;0;
60816;PMS5003;51921;51.518;-3.188;2022-07-25T04:15:48;1;1;
60816;PMS5003;51921;51.518;-3.188;2022-07-25T04:18:13;1;1;
60816;PMS5003;51921;51.518;-3.188;2022-07-25T04:20:38;0;0;
60816;PMS5003;51921;51.518;-3.188;2022-07-25T04:23:04;0;0;
60816;PMS5003;51921;51.518;-3.188;2022-07-25T04:25:29;1;1;
60816;PMS5003;51921;51.518;-3.188;2022-07-25T04:27:54;2;2;
60816;PMS5003;51921;51.518;-3.188;2022-07-25T04:30:20;1;0;
60816;PMS5003;51921;51.518;-3.188;2022-07-25T04:32:45;1;1;
60816;PMS5003;51921;51.518;-3.188;2022-07-25T04:35:11;2;1;
60816;PMS5003;51921;51.518;-3.188;2022-07-25T04:37:36;0;0;
60816;PMS5003;51921;51.518;-3.188;2022-07-25T04:40:02;2;1;
60816;PMS5003;51921;51.518;-3.188;2022-07-25T04:42:27;1;1;
60816;PMS5003;51921;51.518;-3.188;2022-07-25T04:44:52;1;1;
60816;PMS5003;51921;51.518;-3.188;2022-07-25T04:47:18;1;1;
60816;PMS5003;51921;51.518;-3.188;2022-07-25T04:49:43;2;1;
60816;PMS5003;51921;51.518;-3.188;2022-07-25T04:52:09;1;1;
60816;PMS5003;51921;51.518;-3.188;2022-07-25T04:54:34;0;0;
60816;PMS5003;51921;51.518;-3.188;2022-07-25T04:57:00;1;1;
60816;PMS5003;51921;51.518;-3.188;2022-07-25T04:59:25;3;2;
60816;PMS5003;51921;51.518;-3.188;2022-07-25T05:01:50;1;1;
60816;PMS5003;51921;51.518;-3.188;2022-07-25T05:04:16;3;1;
60816;PMS5003;51921;51.518;-3.188;2022-07-25T05:06:41;1;0;
60816;PMS5003;51921;51.518;-3.188;2022-07-25T05:09:07;3;2;
60816;PMS5003;51921;51.518;-3.188;2022-07-25T05:11:32;2;0;
60816;PMS5003;51921;51.518;-3.188;2022-07-25T05:13:58;1;1;
60816;PMS5003;51921;51.518;-3.188;2022-07-25T05:16:23;0;0;
60816;PMS5003;51921;51.518;-3.188;2022-07-25T05:18:49;5;3;
60816;PMS5003;51921;51.518;-3.188;2022-07-25T05:21:14;2;1;
60816;PMS5003;51921;51.518;-3.188;2022-07-25T05:23:40;3;2;
60816;PMS5003;51921;51.518;-3.188;2022-07-25T05:26:05;2;2;
60816;PMS5003;51921;51.518;-3.188;2022-07-25T05:28:30;0;0;
60816;PMS5003;51921;51.518;-3.188;2022-07-25T05:30:56;1;1;
60816;PMS5003;51921;51.518;-3.188;2022-07-25T05:33:21;1;1;
60816;PMS5003;51921;51.518;-3.188;2022-07-25T05:35:47;1;1;
60816;PMS5003;51921;51.518;-3.188;2022-07-25T05:38:12;2;2;
60816;PMS5003;51921;51.518;-3.188;2022-07-25T05:40:37;0;0;
60816;PMS5003;51921;51.518;-3.188;2022-07-25T05:43:03;0;0;
60816;PMS5003;51921;51.518;-3.188;2022-07-25T05:45:28;2;1;
60816;PMS5003;51921;51.518;-3.188;2022-07-25T05:47:54;0;0;
60816;PMS5003;51921;51.518;-3.188;2022-07-25T05:50:19;0;0;
60816;PMS5003;51921;51.518;-3.188;2022-07-25T05:52:45;0;0;
60816;PMS5003;51921;51.518;-3.188;2022-07-25T05:55:10;0;0;
60816;PMS5003;51921;51.518;-3.188;2022-07-25T05:57:36;0;0;
60816;PMS5003;51921;51.518;-3.188;2022-07-25T06:00:02;0;0;
60816;PMS5003;51921;51.518;-3.188;2022-07-25T06:02:26;1;1;
60816;PMS5003;51921;51.518;-3.188;2022-07-25T06:04:52;0;0;
60816;PMS5003;51921;51.518;-3.188;2022-07-25T06:07:17;1;1;
60816;PMS5003;51921;51.518;-3.188;2022-07-25T06:09:43;1;1;
60816;PMS5003;51921;51.518;-3.188;2022-07-25T06:12:08;0;0;
60816;PMS5003;51921;51.518;-3.188;2022-07-25T06:14:34;2;0;
60816;PMS5003;51921;51.518;-3.188;2022-07-25T06:16:59;3;2;
60816;PMS5003;51921;51.518;-3.188;2022-07-25T06:19:24;1;1;
60816;PMS5003;51921;51.518;-3.188;2022-07-25T06:21:50;0;0;
60816;PMS5003;51921;51.518;-3.188;2022-07-25T06:24:15;3;2;
60816;PMS5003;51921;51.518;-3.188;2022-07-25T06:26:41;1;0;
60816;PMS5003;51921;51.518;-3.188;2022-07-25T06:29:06;1;1;
60816;PMS5003;51921;51.518;-3.188;2022-07-25T06:31:31;0;0;
60816;PMS5003;51921;51.518;-3.188;2022-07-25T06:33:57;0;0;
60816;PMS5003;51921;51.518;-3.188;2022-07-25T06:36:22;3;2;
60816;PMS5003;51921;51.518;-3.188;2022-07-25T06:38:48;3;2;
60816;PMS5003;51921;51.518;-3.188;2022-07-25T06:41:13;1;1;
60816;PMS5003;51921;51.518;-3.188;2022-07-25T06:43:39;0;0;
60816;PMS5003;51921;51.518;-3.188;2022-07-25T06:46:04;1;1;
60816;PMS5003;51921;51.518;-3.188;2022-07-25T06:48:29;2;1;
60816;PMS5003;51921;51.518;-3.188;2022-07-25T06:50:55;1;1;
60816;PMS5003;51921;51.518;-3.188;2022-07-25T06:53:20;0;0;
60816;PMS5003;51921;51.518;-3.188;2022-07-25T06:55:46;1;0;
60816;PMS5003;51921;51.518;-3.188;2022-07-25T06:58:11;2;1;
60816;PMS5003;51921;51.518;-3.188;2022-07-25T07:00:37;0;0;
60816;PMS5003;51921;51.518;-3.188;2022-07-25T07:03:02;1;1;
60816;PMS5003;51921;51.518;-3.188;2022-07-25T07:05:28;1;1;
60816;PMS5003;51921;51.518;-3.188;2022-07-25T07:07:53;0;0;
60816;PMS5003;51921;51.518;-3.188;2022-07-25T07:10:18;0;0;
60816;PMS5003;51921;51.518;-3.188;2022-07-25T07:12:44;2;1;
60816;PMS5003;51921;51.518;-3.188;2022-07-25T07:15:09;0;0;
60816;PMS5003;51921;51.518;-3.188;2022-07-25T07:17:34;1;1;
60816;PMS5003;51921;51.518;-3.188;2022-07-25T07:20:00;1;1;
60816;PMS5003;51921;51.518;-3.188;2022-07-25T07:22:25;2;1;
60816;PMS5003;51921;51.518;-3.188;2022-07-25T07:24:51;1;1;
60816;PMS5003;51921;51.518;-3.188;2022-07-25T07:27:16;1;1;
60816;PMS5003;51921;51.518;-3.188;2022-07-25T07:29:41;2;2;
60816;PMS5003;51921;51.518;-3.188;2022-07-25T07:32:07;1;1;
60816;PMS5003;51921;51.518;-3.188;2022-07-25T07:34:32;0;0;
60816;PMS5003;51921;51.518;-3.188;2022-07-25T07:36:58;2;2;
60816;PMS5003;51921;51.518;-3.188;2022-07-25T07:39:23;0;0;
60816;PMS5003;51921;51.518;-3.188;2022-07-25T07:41:48;1;1;
60816;PMS5003;51921;51.518;-3.188;2022-07-25T07:44:13;1;1;
60816;PMS5003;51921;51.518;-3.188;2022-07-25T07:46:39;3;2;
60816;PMS5003;51921;51.518;-3.188;2022-07-25T07:49:04;2;1;
60816;PMS5003;51921;51.518;-3.188;2022-07-25T07:51:29;2;2;
60816;PMS5003;51921;51.518;-3.188;2022-07-25T07:53:55;4;3;
60816;PMS5003;51921;51.518;-3.188;2022-07-25T07:56:20;3;3;
60816;PMS5003;51921;51.518;-3.188;2022-07-25T07:58:46;3;2;
60816;PMS5003;51921;51.518;-3.188;2022-07-25T08:01:11;5;3;
60816;PMS5003;51921;51.518;-3.188;2022-07-25T08:03:36;2;2;
60816;PMS5003;51921;51.518;-3.188;2022-07-25T08:06:02;3;3;
60816;PMS5003;51921;51.518;-3.188;2022-07-25T08:08:27;4;4;
60816;PMS5003;51921;51.518;-3.188;2022-07-25T08:10:52;1;1;
60816;PMS5003;51921;51.518;-3.188;2022-07-25T08:13:18;5;4;
60816;PMS5003;51921;51.518;-3.188;2022-07-25T08:15:44;3;2;
60816;PMS5003;51921;51.518;-3.188;2022-07-25T08:18:08;5;4;
60816;PMS5003;51921;51.518;-3.188;2022-07-25T08:20:34;5;4;
60816;PMS5003;51921;51.518;-3.188;2022-07-25T08:22:59;4;4;
60816;PMS5003;51921;51.518;-3.188;2022-07-25T08:25:25;4;4;
60816;PMS5003;51921;51.518;-3.188;2022-07-25T08:27:50;4;4;
60816;PMS5003;51921;51.518;-3.188;2022-07-25T08:30:16;4;4;
60816;PMS5003;51921;51.518;-3.188;2022-07-25T08:32:47;6;5;
60816;PMS5003;51921;51.518;-3.188;2022-07-25T08:35:06;4;2;
60816;PMS5003;51921;51.518;-3.188;2022-07-25T08:37:31;4;3;
60816;PMS5003;51921;51.518;-3.188;2022-07-25T08:39:57;3;2;
60816;PMS5003;51921;51.518;-3.188;2022-07-25T08:42:22;2;2;
60816;PMS5003;51921;51.518;-3.188;2022-07-25T08:44:49;2;1;
60816;PMS5003;51921;51.518;-3.188;2022-07-25T08:47:13;1;1;
60816;PMS5003;51921;51.518;-3.188;2022-07-25T08:49:38;3;3;
60816;PMS5003;51921;51.518;-3.188;2022-07-25T08:52:04;2;1;
60816;PMS5003;51921;51.518;-3.188;2022-07-25T08:54:29;5;4;
60816;PMS5003;51921;51.518;-3.188;2022-07-25T08:56:54;4;4;
60816;PMS5003;51921;51.518;-3.188;2022-07-25T08:59:20;4;3;
60816;PMS5003;51921;51.518;-3.188;2022-07-25T09:01:45;3;3;
60816;PMS5003;51921;51.518;-3.188;2022-07-25T09:04:10;4;4;
60816;PMS5003;51921;51.518;-3.188;2022-07-25T09:06:36;3;3;
60816;PMS5003;51921;51.518;-3.188;2022-07-25T09:09:01;3;3;
60816;PMS5003;51921;51.518;-3.188;2022-07-25T09:11:27;2;2;
60816;PMS5003;51921;51.518;-3.188;2022-07-25T09:13:56;3;3;
60816;PMS5003;51921;51.518;-3.188;2022-07-25T09:16:27;2;2;
60816;PMS5003;51921;51.518;-3.188;2022-07-25T09:18:42;1;1;
60816;PMS5003;51921;51.518;-3.188;2022-07-25T09:21:12;2;2;
60816;PMS5003;51921;51.518;-3.188;2022-07-25T09:23:34;2;2;
60816;PMS5003;51921;51.518;-3.188;2022-07-25T09:26:02;1;1;
60816;PMS5003;51921;51.518;-3.188;2022-07-25T09:28:24;1;1;
60816;PMS5003;51921;51.518;-3.188;2022-07-25T09:30:53;4;4;
60816;PMS5003;51921;51.518;-3.188;2022-07-25T09:33:15;3;3;
60816;PMS5003;51921;51.518;-3.188;2022-07-25T09:35:41;4;4;
60816;PMS5003;51921;51.518;-3.188;2022-07-25T09:38:08;8;8;
60816;PMS5003;51921;51.518;-3.188;2022-07-25T09:40:31;7;7;
60816;PMS5003;51921;51.518;-3.188;2022-07-25T09:42:56;6;6;
60816;PMS5003;51921;51.518;-3.188;2022-07-25T09:45:22;6;6;
60816;PMS5003;51921;51.518;-3.188;2022-07-25T09:47:49;7;6;
60816;PMS5003;51921;51.518;-3.188;2022-07-25T09:50:13;7;7;
60816;PMS5003;51921;51.518;-3.188;2022-07-25T09:52:38;6;6;
60816;PMS5003;51921;51.518;-3.188;2022-07-25T09:55:04;6;6;
60816;PMS5003;51921;51.518;-3.188;2022-07-25T09:57:29;7;7;
60816;PMS5003;51921;51.518;-3.188;2022-07-25T09:59:54;5;4;
60816;PMS5003;51921;51.518;-3.188;2022-07-25T10:02:23;5;5;
60816;PMS5003;51921;51.518;-3.188;2022-07-25T10:04:46;6;6;
60816;PMS5003;51921;51.518;-3.188;2022-07-25T10:07:11;7;7;
60816;PMS5003;51921;51.518;-3.188;2022-07-25T10:09:40;6;5;
60816;PMS5003;51921;51.518;-3.188;2022-07-25T10:12:03;6;5;
60816;PMS5003;51921;51.518;-3.188;2022-07-25T10:14:26;5;5;
60816;PMS5003;51921;51.518;-3.188;2022-07-25T10:16:52;5;5;
60816;PMS5003;51921;51.518;-3.188;2022-07-25T10:19:22;6;6;
60816;PMS5003;51921;51.518;-3.188;2022-07-25T10:21:53;7;6;
60816;PMS5003;51921;51.518;-3.188;2022-07-25T10:24:08;7;7;
60816;PMS5003;51921;51.518;-3.188;2022-07-25T10:26:33;8;8;
60816;PMS5003;51921;51.518;-3.188;2022-07-25T10:28:58;7;7;
60816;PMS5003;51921;51.518;-3.188;2022-07-25T10:31:24;7;6;
60816;PMS5003;51921;51.518;-3.188;2022-07-25T10:33:51;5;5;
60816;PMS5003;51921;51.518;-3.188;2022-07-25T10:36:14;7;6;
60816;PMS5003;51921;51.518;-3.188;2022-07-25T10:38:40;9;8;
60816;PMS5003;51921;51.518;-3.188;2022-07-25T10:41:10;6;6;
60816;PMS5003;51921;51.518;-3.188;2022-07-25T10:43:34;6;6;
60816;PMS5003;51921;51.518;-3.188;2022-07-25T10:45:57;8;8;
60816;PMS5003;51921;51.518;-3.188;2022-07-25T10:48:22;6;6;
60816;PMS5003;51921;51.518;-3.188;2022-07-25T10:50:49;5;5;
60816;PMS5003;51921;51.518;-3.188;2022-07-25T10:53:12;6;5;
60816;PMS5003;51921;51.518;-3.188;2022-07-25T10:55:37;8;8;
60816;PMS5003;51921;51.518;-3.188;2022-07-25T10:58:03;5;5;
60816;PMS5003;51921;51.518;-3.188;2022-07-25T11:00:28;6;6;
60816;PMS5003;51921;51.518;-3.188;2022-07-25T11:02:54;5;5;
60816;PMS5003;51921;51.518;-3.188;2022-07-25T11:05:18;6;5;
60816;PMS5003;51921;51.518;-3.188;2022-07-25T11:07:54;8;8;
60816;PMS5003;51921;51.518;-3.188;2022-07-25T11:10:09;6;5;
60816;PMS5003;51921;51.518;-3.188;2022-07-25T11:12:34;7;6;
60816;PMS5003;51921;51.518;-3.188;2022-07-25T11:15:01;7;7;
60816;PMS5003;51921;51.518;-3.188;2022-07-25T11:17:25;8;8;
60816;PMS5003;51921;51.518;-3.188;2022-07-25T11:19:53;6;6;
60816;PMS5003;51921;51.518;-3.188;2022-07-25T11:22:16;5;5;
60816;PMS5003;51921;51.518;-3.188;2022-07-25T11:24:42;5;5;
60816;PMS5003;51921;51.518;-3.188;2022-07-25T11:27:07;4;4;
60816;PMS5003;51921;51.518;-3.188;2022-07-25T11:29:32;5;5;
60816;PMS5003;51921;51.518;-3.188;2022-07-25T11:31:58;6;6;
60816;PMS5003;51921;51.518;-3.188;2022-07-25T11:34:23;7;7;
60816;PMS5003;51921;51.518;-3.188;2022-07-25T11:36:48;9;9;
60816;PMS5003;51921;51.518;-3.188;2022-07-25T11:39:14;7;7;
60816;PMS5003;51921;51.518;-3.188;2022-07-25T11:41:38;7;7;
60816;PMS5003;51921;51.518;-3.188;2022-07-25T11:44:04;6;6;
60816;PMS5003;51921;51.518;-3.188;2022-07-25T11:46:29;7;7;
60816;PMS5003;51921;51.518;-3.188;2022-07-25T11:51:20;10;8;
60816;PMS5003;51921;51.518;-3.188;2022-07-25T11:53:46;5;5;
60816;PMS5003;51921;51.518;-3.188;2022-07-25T11:56:12;5;5;
60816;PMS5003;51921;51.518;-3.188;2022-07-25T11:58:35;3;3;
60816;PMS5003;51921;51.518;-3.188;2022-07-25T12:01:09;4;4;
60816;PMS5003;51921;51.518;-3.188;2022-07-25T12:03:35;4;4;
60816;PMS5003;51921;51.518;-3.188;2022-07-25T12:05:52;4;4;
60816;PMS5003;51921;51.518;-3.188;2022-07-25T12:08:18;5;5;
60816;PMS5003;51921;51.518;-3.188;2022-07-25T12:10:43;5;5;
60816;PMS5003;51921;51.518;-3.188;2022-07-25T12:13:08;4;3;
60816;PMS5003;51921;51.518;-3.188;2022-07-25T12:15:34;5;5;
60816;PMS5003;51921;51.518;-3.188;2022-07-25T12:17:58;6;6;
60816;PMS5003;51921;51.518;-3.188;2022-07-25T12:20:25;4;4;
60816;PMS5003;51921;51.518;-3.188;2022-07-25T12:22:50;4;4;
60816;PMS5003;51921;51.518;-3.188;2022-07-25T12:25:15;5;5;
60816;PMS5003;51921;51.518;-3.188;2022-07-25T12:27:40;3;3;
60816;PMS5003;51921;51.518;-3.188;2022-07-25T12:30:06;6;6;
60816;PMS5003;51921;51.518;-3.188;2022-07-25T12:32:30;4;4;
60816;PMS5003;51921;51.518;-3.188;2022-07-25T12:34:56;4;4;
60816;PMS5003;51921;51.518;-3.188;2022-07-25T12:37:21;5;5;
60816;PMS5003;51921;51.518;-3.188;2022-07-25T12:39:47;5;5;
60816;PMS5003;51921;51.518;-3.188;2022-07-25T12:42:12;6;6;
60816;PMS5003;51921;51.518;-3.188;2022-07-25T12:44:37;5;5;
60816;PMS5003;51921;51.518;-3.188;2022-07-25T12:47:03;3;3;
60816;PMS5003;51921;51.518;-3.188;2022-07-25T12:49:28;2;2;
60816;PMS5003;51921;51.518;-3.188;2022-07-25T12:51:53;4;4;
60816;PMS5003;51921;51.518;-3.188;2022-07-25T12:54:18;2;2;
60816;PMS5003;51921;51.518;-3.188;2022-07-25T12:56:44;4;4;
60816;PMS5003;51921;51.518;-3.188;2022-07-25T12:59:09;4;4;
60816;PMS5003;51921;51.518;-3.188;2022-07-25T13:01:34;3;3;
60816;PMS5003;51921;51.518;-3.188;2022-07-25T13:04:00;5;5;
60816;PMS5003;51921;51.518;-3.188;2022-07-25T13:06:25;5;5;
60816;PMS5003;51921;51.518;-3.188;2022-07-25T13:08:50;6;6;
60816;PMS5003;51921;51.518;-3.188;2022-07-25T13:11:16;5;5;
60816;PMS5003;51921;51.518;-3.188;2022-07-25T13:13:41;7;6;
60816;PMS5003;51921;51.518;-3.188;2022-07-25T13:16:07;5;5;
60816;PMS5003;51921;51.518;-3.188;2022-07-25T13:18:32;5;5;
60816;PMS5003;51921;51.518;-3.188;2022-07-25T13:20:57;3;3;
60816;PMS5003;51921;51.518;-3.188;2022-07-25T13:23:23;4;4;
60816;PMS5003;51921;51.518;-3.188;2022-07-25T13:25:48;4;4;
60816;PMS5003;51921;51.518;-3.188;2022-07-25T13:28:13;5;4;
60816;PMS5003;51921;51.518;-3.188;2022-07-25T13:30:39;4;4;
60816;PMS5003;51921;51.518;-3.188;2022-07-25T13:33:04;3;3;
60816;PMS5003;51921;51.518;-3.188;2022-07-25T13:35:30;3;3;
60816;PMS5003;51921;51.518;-3.188;2022-07-25T13:37:55;3;3;
60816;PMS5003;51921;51.518;-3.188;2022-07-25T13:40:20;2;2;
60816;PMS5003;51921;51.518;-3.188;2022-07-25T13:42:45;3;3;
60816;PMS5003;51921;51.518;-3.188;2022-07-25T13:45:11;5;4;
60816;PMS5003;51921;51.518;-3.188;2022-07-25T13:47:36;4;4;
60816;PMS5003;51921;51.518;-3.188;2022-07-25T13:50:02;4;4;
60816;PMS5003;51921;51.518;-3.188;2022-07-25T13:52:27;4;4;
60816;PMS5003;51921;51.518;-3.188;2022-07-25T13:54:52;3;3;
60816;PMS5003;51921;51.518;-3.188;2022-07-25T13:57:18;3;3;
60816;PMS5003;51921;51.518;-3.188;2022-07-25T13:59:43;4;4;
60816;PMS5003;51921;51.518;-3.188;2022-07-25T14:02:08;2;2;
60816;PMS5003;51921;51.518;-3.188;2022-07-25T14:04:34;4;4;
60816;PMS5003;51921;51.518;-3.188;2022-07-25T14:06:59;4;4;
60816;PMS5003;51921;51.518;-3.188;2022-07-25T14:09:24;4;4;
60816;PMS5003;51921;51.518;-3.188;2022-07-25T14:11:50;5;5;
60816;PMS5003;51921;51.518;-3.188;2022-07-25T14:14:15;4;4;
60816;PMS5003;51921;51.518;-3.188;2022-07-25T14:16:40;4;4;
60816;PMS5003;51921;51.518;-3.188;2022-07-25T14:19:06;3;3;
60816;PMS5003;51921;51.518;-3.188;2022-07-25T14:21:31;3;2;
60816;PMS5003;51921;51.518;-3.188;2022-07-25T14:23:57;2;2;
60816;PMS5003;51921;51.518;-3.188;2022-07-25T14:26:22;3;3;
60816;PMS5003;51921;51.518;-3.188;2022-07-25T14:28:47;2;1;
60816;PMS5003;51921;51.518;-3.188;2022-07-25T14:31:13;2;2;
60816;PMS5003;51921;51.518;-3.188;2022-07-25T14:33:38;3;3;
60816;PMS5003;51921;51.518;-3.188;2022-07-25T14:36:04;4;4;
60816;PMS5003;51921;51.518;-3.188;2022-07-25T14:38:29;3;3;
60816;PMS5003;51921;51.518;-3.188;2022-07-25T14:40:54;4;3;
60816;PMS5003;51921;51.518;-3.188;2022-07-25T14:43:19;2;2;
60816;PMS5003;51921;51.518;-3.188;2022-07-25T14:45:45;2;2;
60816;PMS5003;51921;51.518;-3.188;2022-07-25T14:48:10;3;3;
60816;PMS5003;51921;51.518;-3.188;2022-07-25T14:50:35;3;3;
60816;PMS5003;51921;51.518;-3.188;2022-07-25T14:53:01;3;3;
60816;PMS5003;51921;51.518;-3.188;2022-07-25T14:55:26;3;3;
60816;PMS5003;51921;51.518;-3.188;2022-07-25T14:57:51;3;2;
60816;PMS5003;51921;51.518;-3.188;2022-07-25T15:00:17;2;2;
60816;PMS5003;51921;51.518;-3.188;2022-07-25T15:02:42;2;2;
60816;PMS5003;51921;51.518;-3.188;2022-07-25T15:05:08;3;3;
60816;PMS5003;51921;51.518;-3.188;2022-07-25T15:07:33;5;4;
60816;PMS5003;51921;51.518;-3.188;2022-07-25T15:09:58;4;4;
60816;PMS5003;51921;51.518;-3.188;2022-07-25T15:12:24;2;2;
60816;PMS5003;51921;51.518;-3.188;2022-07-25T15:14:49;3;3;
60816;PMS5003;51921;51.518;-3.188;2022-07-25T15:17:14;3;3;
60816;PMS5003;51921;51.518;-3.188;2022-07-25T15:19:40;4;4;
60816;PMS5003;51921;51.518;-3.188;2022-07-25T15:22:05;4;3;
60816;PMS5003;51921;51.518;-3.188;2022-07-25T15:24:30;3;3;
60816;PMS5003;51921;51.518;-3.188;2022-07-25T15:26:56;2;2;
60816;PMS5003;51921;51.518;-3.188;2022-07-25T15:29:21;2;2;
60816;PMS5003;51921;51.518;-3.188;2022-07-25T15:31:46;3;3;
60816;PMS5003;51921;51.518;-3.188;2022-07-25T15:34:12;2;2;
60816;PMS5003;51921;51.518;-3.188;2022-07-25T15:36:37;3;3;
60816;PMS5003;51921;51.518;-3.188;2022-07-25T15:39:02;2;2;
60816;PMS5003;51921;51.518;-3.188;2022-07-25T15:41:29;3;3;
60816;PMS5003;51921;51.518;-3.188;2022-07-25T15:43:53;1;1;
60816;PMS5003;51921;51.518;-3.188;2022-07-25T15:46:18;1;1;
60816;PMS5003;51921;51.518;-3.188;2022-07-25T15:48:44;1;1;
60816;PMS5003;51921;51.518;-3.188;2022-07-25T15:51:09;1;1;
60816;PMS5003;51921;51.518;-3.188;2022-07-25T15:53:34;1;1;
60816;PMS5003;51921;51.518;-3.188;2022-07-25T15:56:00;1;1;
60816;PMS5003;51921;51.518;-3.188;2022-07-25T15:58:25;2;2;
60816;PMS5003;51921;51.518;-3.188;2022-07-25T16:00:50;1;1;
60816;PMS5003;51921;51.518;-3.188;2022-07-25T16:03:16;2;2;
60816;PMS5003;51921;51.518;-3.188;2022-07-25T16:05:41;2;2;
60816;PMS5003;51921;51.518;-3.188;2022-07-25T16:08:06;1;1;
60816;PMS5003;51921;51.518;-3.188;2022-07-25T16:10:32;1;1;
60816;PMS5003;51921;51.518;-3.188;2022-07-25T16:12:57;2;2;
60816;PMS5003;51921;51.518;-3.188;2022-07-25T16:15:22;1;1;
60816;PMS5003;51921;51.518;-3.188;2022-07-25T16:17:48;1;1;
60816;PMS5003;51921;51.518;-3.188;2022-07-25T16:20:13;1;1;
60816;PMS5003;51921;51.518;-3.188;2022-07-25T16:22:38;2;2;